メインページ
METAR-TAF:

METAR-TAF

空港 :

アトランタ, ジョージア州, アメリカ合衆国

ハーツフィールド・ジャクソン・アトランタ国際空港

緯度: 33-38-25N, 経度: 084-25-37W, 海抜: 313m

現時点の気象観測

当レポートは28分前の22:52(UTC)に作成
西/南西の風 10kt
気温 27°C
湿度 62%
気圧 1015 hPa
視程: 16.1km
高度2600ftの雲はほとんどない
高度5000ftの雲は散在している

METAR: KATL 272252Z 24010KT 10SM FEW026 SCT050 27/19 A2998 RMK AO2 SLP142 T02670194

時間: 19:20 (23:20 UTC)

予報

当レポートは1時間39分前の21:41(UTC)に作成
予報は27日の 22時(UTC)から 28日の 24時(UTC)まで有効
南西の風 10kt
視程: 10km
高度3500ftの雲は散在している
高度4500ftの千切れ雲あり
28日の 0300時(UTC)から
西/南西の風 6kt
視程: 10km
高度4000ftの雲は散在している
高度15000ftの千切れ雲あり
28日の 1000時(UTC)から
西/南西の風 6kt
視程: 10km
高度1200ftの千切れ雲あり
28日の 1400時(UTC)から
西/南西の風 8kt
視程: 10km
高度2500ftの千切れ雲あり
28日の 1600時(UTC)から
西/南西の風 11kt、最大16ktの突風を伴う
視程: 10km
高度3500ftの千切れ雲あり
28日の 2000時(UTC)から
西/南西の風 12kt、最大18ktの突風を伴う
視程: 10km
高度4500ftの雲は散在している

TAF: KATL 272141Z 2722/2824 23010KT P6SM SCT035 BKN045 FM280300 25006KT P6SM SCT040 BKN150 FM281000 25006KT P6SM BKN012 FM281400 25008KT P6SM BKN025 FM281600 25011G16KT P6SM BKN035 FM282000 25012G18KT P6SM SCT045

4,000以上の空港の気象観測と天気予報(METAR報とTAF報)

利用可能な観測所は地図上に黄色い丸と赤い丸で示す。

丸の上にカーソルを重ねると観測所名を参照できる。

次にクリックすると気象観測と天気予報を参照できる。

マップの切り替え:黒色「×」印の緑ボタンをクリックして拡大、「-」印の緑ボタンをクリックして縮小、緑色の三角印をクリックして隣りの地図に切り替え


METAR-TAF: